sensor_id;sensor_type;location;lat;lon;timestamp;pressure;altitude;pressure_sealevel;temperature;humidity
5883;BME280;2967;51.488;6.618;2023-03-04T00:01:57;102281.19;;;7.03;100.00
5883;BME280;2967;51.488;6.618;2023-03-04T00:07:01;102240.47;;;6.86;100.00
5883;BME280;2967;51.488;6.618;2023-03-04T00:12:05;102273.16;;;7.09;100.00
5883;BME280;2967;51.488;6.618;2023-03-04T00:17:08;102273.22;;;7.06;100.00
5883;BME280;2967;51.488;6.618;2023-03-04T00:22:15;102250.97;;;6.87;100.00
5883;BME280;2967;51.488;6.618;2023-03-04T00:27:18;102272.22;;;7.12;100.00
5883;BME280;2967;51.488;6.618;2023-03-04T00:32:21;102274.75;;;7.15;100.00
5883;BME280;2967;51.488;6.618;2023-03-04T00:37:25;102199.66;;;6.71;100.00
5883;BME280;2967;51.488;6.618;2023-03-04T00:42:27;102271.38;;;7.10;100.00
5883;BME280;2967;51.488;6.618;2023-03-04T00:47:30;102240.22;;;6.95;100.00
5883;BME280;2967;51.488;6.618;2023-03-04T00:52:34;102267.69;;;7.17;100.00
5883;BME280;2967;51.488;6.618;2023-03-04T00:57:39;102257.31;;;7.11;100.00
5883;BME280;2967;51.488;6.618;2023-03-04T01:02:42;102220.16;;;6.91;100.00
5883;BME280;2967;51.488;6.618;2023-03-04T01:08:00;102207.06;;;6.89;100.00
5883;BME280;2967;51.488;6.618;2023-03-04T01:13:06;102226.84;;;7.02;100.00
5883;BME280;2967;51.488;6.618;2023-03-04T01:18:09;102258.97;;;7.15;100.00
5883;BME280;2967;51.488;6.618;2023-03-04T01:23:14;102151.00;;;6.55;100.00
5883;BME280;2967;51.488;6.618;2023-03-04T01:28:17;102239.75;;;7.11;100.00
5883;BME280;2967;51.488;6.618;2023-03-04T01:33:21;102252.09;;;7.09;100.00
5883;BME280;2967;51.488;6.618;2023-03-04T01:38:25;102244.47;;;7.00;100.00
5883;BME280;2967;51.488;6.618;2023-03-04T01:43:29;102177.06;;;6.64;100.00
5883;BME280;2967;51.488;6.618;2023-03-04T01:48:34;102218.25;;;6.97;100.00
5883;BME280;2967;51.488;6.618;2023-03-04T01:53:39;102159.75;;;6.56;100.00
5883;BME280;2967;51.488;6.618;2023-03-04T01:58:42;102235.53;;;7.06;100.00
5883;BME280;2967;51.488;6.618;2023-03-04T02:03:45;102230.31;;;7.04;100.00
5883;BME280;2967;51.488;6.618;2023-03-04T02:08:49;102233.81;;;7.05;100.00
5883;BME280;2967;51.488;6.618;2023-03-04T02:13:52;101953.59;;;5.39;100.00
5883;BME280;2967;51.488;6.618;2023-03-04T02:18:55;102185.63;;;6.71;100.00
5883;BME280;2967;51.488;6.618;2023-03-04T02:24:08;102217.72;;;6.83;100.00
5883;BME280;2967;51.488;6.618;2023-03-04T02:29:17;102153.00;;;6.47;100.00
5883;BME280;2967;51.488;6.618;2023-03-04T02:34:23;102195.31;;;6.70;100.00
5883;BME280;2967;51.488;6.618;2023-03-04T02:39:30;102103.69;;;6.23;100.00
5883;BME280;2967;51.488;6.618;2023-03-04T02:44:37;102185.81;;;6.65;100.00
5883;BME280;2967;51.488;6.618;2023-03-04T02:49:40;102105.41;;;6.24;100.00
5883;BME280;2967;51.488;6.618;2023-03-04T02:54:43;102189.94;;;6.75;100.00
5883;BME280;2967;51.488;6.618;2023-03-04T02:59:47;102185.38;;;6.81;100.00
5883;BME280;2967;51.488;6.618;2023-03-04T03:17:29;102121.25;;;6.55;100.00
5883;BME280;2967;51.488;6.618;2023-03-04T03:22:32;102183.44;;;6.86;100.00
5883;BME280;2967;51.488;6.618;2023-03-04T03:27:35;102173.59;;;6.94;100.00
5883;BME280;2967;51.488;6.618;2023-03-04T03:32:40;102179.66;;;6.96;100.00
5883;BME280;2967;51.488;6.618;2023-03-04T03:37:43;102102.53;;;6.65;100.00
5883;BME280;2967;51.488;6.618;2023-03-04T03:42:45;102168.41;;;6.91;100.00
5883;BME280;2967;51.488;6.618;2023-03-04T03:47:50;102115.09;;;6.54;100.00
5883;BME280;2967;51.488;6.618;2023-03-04T03:52:53;102141.78;;;6.73;100.00
5883;BME280;2967;51.488;6.618;2023-03-04T03:57:55;102075.44;;;6.33;100.00
5883;BME280;2967;51.488;6.618;2023-03-04T04:03:00;102134.16;;;6.62;100.00
5883;BME280;2967;51.488;6.618;2023-03-04T04:08:03;102152.19;;;6.76;100.00
5883;BME280;2967;51.488;6.618;2023-03-04T04:13:06;102158.41;;;6.73;100.00
5883;BME280;2967;51.488;6.618;2023-03-04T04:18:10;102130.88;;;6.54;100.00
5883;BME280;2967;51.488;6.618;2023-03-04T04:23:12;102167.06;;;6.77;100.00
5883;BME280;2967;51.488;6.618;2023-03-04T04:28:15;102136.91;;;6.59;100.00
5883;BME280;2967;51.488;6.618;2023-03-04T04:33:19;102154.94;;;6.73;100.00
5883;BME280;2967;51.488;6.618;2023-03-04T04:38:23;102160.94;;;6.76;100.00
5883;BME280;2967;51.488;6.618;2023-03-04T04:43:26;102112.47;;;6.54;100.00
5883;BME280;2967;51.488;6.618;2023-03-04T04:48:30;102160.91;;;6.78;100.00
5883;BME280;2967;51.488;6.618;2023-03-04T04:53:33;102127.34;;;6.55;100.00
5883;BME280;2967;51.488;6.618;2023-03-04T04:58:36;102182.19;;;6.69;100.00
5883;BME280;2967;51.488;6.618;2023-03-04T05:03:40;102060.72;;;5.94;100.00
5883;BME280;2967;51.488;6.618;2023-03-04T05:08:43;102172.69;;;6.63;100.00
5883;BME280;2967;51.488;6.618;2023-03-04T05:13:46;102180.31;;;6.74;100.00
5883;BME280;2967;51.488;6.618;2023-03-04T05:18:50;102182.88;;;6.75;100.00
5883;BME280;2967;51.488;6.618;2023-03-04T05:23:55;102174.38;;;6.67;100.00
5883;BME280;2967;51.488;6.618;2023-03-04T05:28:57;102179.19;;;6.82;100.00
5883;BME280;2967;51.488;6.618;2023-03-04T05:34:02;102117.94;;;6.47;100.00
5883;BME280;2967;51.488;6.618;2023-03-04T05:39:04;102142.19;;;6.58;100.00
5883;BME280;2967;51.488;6.618;2023-03-04T05:44:07;102135.41;;;6.49;100.00
5883;BME280;2967;51.488;6.618;2023-03-04T05:49:12;102139.47;;;6.61;100.00
5883;BME280;2967;51.488;6.618;2023-03-04T05:54:14;102157.69;;;6.68;100.00
5883;BME280;2967;51.488;6.618;2023-03-04T05:59:17;101967.00;;;5.61;100.00
5883;BME280;2967;51.488;6.618;2023-03-04T06:04:22;102174.84;;;6.81;100.00
5883;BME280;2967;51.488;6.618;2023-03-04T06:09:25;102182.75;;;6.80;100.00
5883;BME280;2967;51.488;6.618;2023-03-04T06:14:27;102146.41;;;6.63;100.00
5883;BME280;2967;51.488;6.618;2023-03-04T06:19:32;102185.47;;;6.77;100.00
5883;BME280;2967;51.488;6.618;2023-03-04T06:24:35;102193.25;;;6.81;100.00
5883;BME280;2967;51.488;6.618;2023-03-04T06:29:38;102197.72;;;6.78;100.00
5883;BME280;2967;51.488;6.618;2023-03-04T06:34:42;102186.19;;;6.83;100.00
5883;BME280;2967;51.488;6.618;2023-03-04T06:39:44;102140.72;;;6.46;100.00
5883;BME280;2967;51.488;6.618;2023-03-04T06:44:48;102150.88;;;6.60;100.00
5883;BME280;2967;51.488;6.618;2023-03-04T06:49:52;102209.03;;;6.81;100.00
5883;BME280;2967;51.488;6.618;2023-03-04T06:54:55;102212.47;;;6.83;100.00
5883;BME280;2967;51.488;6.618;2023-03-04T06:59:58;102210.03;;;6.77;100.00
5883;BME280;2967;51.488;6.618;2023-03-04T07:05:02;102215.88;;;6.87;100.00
5883;BME280;2967;51.488;6.618;2023-03-04T07:10:06;102214.03;;;6.90;100.00
5883;BME280;2967;51.488;6.618;2023-03-04T07:15:10;102176.13;;;6.67;100.00
5883;BME280;2967;51.488;6.618;2023-03-04T07:20:15;102154.66;;;6.50;100.00
5883;BME280;2967;51.488;6.618;2023-03-04T07:25:19;102232.44;;;6.92;100.00
5883;BME280;2967;51.488;6.618;2023-03-04T07:30:22;102238.44;;;6.95;100.00
5883;BME280;2967;51.488;6.618;2023-03-04T07:35:26;102228.81;;;6.94;100.00
5883;BME280;2967;51.488;6.618;2023-03-04T07:40:29;102224.88;;;7.10;100.00
5883;BME280;2967;51.488;6.618;2023-03-04T07:45:34;102162.38;;;6.57;100.00
5883;BME280;2967;51.488;6.618;2023-03-04T07:50:38;102216.56;;;6.95;100.00
5883;BME280;2967;51.488;6.618;2023-03-04T07:55:42;102233.59;;;7.12;100.00
5883;BME280;2967;51.488;6.618;2023-03-04T08:00:45;102237.34;;;7.34;100.00
5883;BME280;2967;51.488;6.618;2023-03-04T08:05:49;102238.38;;;7.29;100.00
5883;BME280;2967;51.488;6.618;2023-03-04T08:10:52;102206.34;;;7.15;100.00
5883;BME280;2967;51.488;6.618;2023-03-04T08:15:55;102240.06;;;7.31;100.00
5883;BME280;2967;51.488;6.618;2023-03-04T08:20:59;102239.16;;;7.32;100.00
5883;BME280;2967;51.488;6.618;2023-03-04T08:26:07;102253.06;;;7.37;100.00
5883;BME280;2967;51.488;6.618;2023-03-04T08:31:13;102145.44;;;6.98;100.00
5883;BME280;2967;51.488;6.618;2023-03-04T08:36:19;102076.72;;;6.49;100.00
5883;BME280;2967;51.488;6.618;2023-03-04T08:41:31;102165.03;;;7.18;100.00
5883;BME280;2967;51.488;6.618;2023-03-04T08:46:36;102052.84;;;6.56;100.00
5883;BME280;2967;51.488;6.618;2023-03-04T08:51:42;102232.16;;;7.62;100.00
5883;BME280;2967;51.488;6.618;2023-03-04T08:56:45;102235.25;;;7.74;100.00
5883;BME280;2967;51.488;6.618;2023-03-04T09:01:48;102210.59;;;7.49;100.00
5883;BME280;2967;51.488;6.618;2023-03-04T09:06:52;102235.63;;;7.62;100.00
5883;BME280;2967;51.488;6.618;2023-03-04T09:11:55;102220.19;;;7.52;100.00
5883;BME280;2967;51.488;6.618;2023-03-04T09:16:58;102164.66;;;7.30;100.00
5883;BME280;2967;51.488;6.618;2023-03-04T09:22:06;102142.72;;;7.30;100.00
5883;BME280;2967;51.488;6.618;2023-03-04T09:27:09;102098.75;;;7.04;100.00
5883;BME280;2967;51.488;6.618;2023-03-04T09:32:12;102227.72;;;7.91;100.00
5883;BME280;2967;51.488;6.618;2023-03-04T09:37:17;101831.00;;;5.76;100.00
5883;BME280;2967;51.488;6.618;2023-03-04T09:42:26;102041.09;;;6.98;100.00
5883;BME280;2967;51.488;6.618;2023-03-04T09:47:33;102160.59;;;7.75;100.00
5883;BME280;2967;51.488;6.618;2023-03-04T09:52:51;102147.50;;;7.73;100.00
5883;BME280;2967;51.488;6.618;2023-03-04T09:58:02;102172.50;;;8.14;100.00
5883;BME280;2967;51.488;6.618;2023-03-04T10:03:14;102139.53;;;7.75;100.00
5883;BME280;2967;51.488;6.618;2023-03-04T10:08:33;102206.22;;;8.04;100.00
5883;BME280;2967;51.488;6.618;2023-03-04T10:13:43;102138.22;;;7.62;100.00
5883;BME280;2967;51.488;6.618;2023-03-04T10:19:02;102021.25;;;7.16;100.00
5883;BME280;2967;51.488;6.618;2023-03-04T10:24:18;102199.31;;;8.28;100.00
5883;BME280;2967;51.488;6.618;2023-03-04T10:29:30;102074.09;;;7.63;100.00
5883;BME280;2967;51.488;6.618;2023-03-04T10:34:36;102194.59;;;8.37;100.00
5883;BME280;2967;51.488;6.618;2023-03-04T10:39:44;101894.13;;;6.60;100.00
5883;BME280;2967;51.488;6.618;2023-03-04T10:44:54;102123.22;;;8.16;100.00
5883;BME280;2967;51.488;6.618;2023-03-04T10:49:58;102137.16;;;8.21;100.00
5883;BME280;2967;51.488;6.618;2023-03-04T10:55:05;102137.69;;;8.30;100.00
5883;BME280;2967;51.488;6.618;2023-03-04T11:00:27;102188.44;;;8.63;100.00
5883;BME280;2967;51.488;6.618;2023-03-04T11:05:31;102046.84;;;7.90;100.00
5883;BME280;2967;51.488;6.618;2023-03-04T11:10:39;102039.06;;;7.87;100.00
5883;BME280;2967;51.488;6.618;2023-03-04T11:15:53;101999.03;;;7.76;100.00
5883;BME280;2967;51.488;6.618;2023-03-04T11:21:02;102044.09;;;7.93;100.00
5883;BME280;2967;51.488;6.618;2023-03-04T11:26:09;102180.53;;;8.63;100.00
5883;BME280;2967;51.488;6.618;2023-03-04T11:31:17;102164.56;;;8.66;100.00
5883;BME280;2967;51.488;6.618;2023-03-04T11:36:34;102116.06;;;8.47;100.00
5883;BME280;2967;51.488;6.618;2023-03-04T11:41:48;102142.78;;;9.08;100.00
5883;BME280;2967;51.488;6.618;2023-03-04T11:47:23;102066.50;;;8.55;100.00
5883;BME280;2967;51.488;6.618;2023-03-04T11:52:44;102045.38;;;8.32;100.00
5883;BME280;2967;51.488;6.618;2023-03-04T11:58:02;102121.63;;;8.87;100.00
5883;BME280;2967;51.488;6.618;2023-03-04T12:03:26;102127.00;;;8.84;100.00
5883;BME280;2967;51.488;6.618;2023-03-04T12:08:49;102049.53;;;8.39;100.00
5883;BME280;2967;51.488;6.618;2023-03-04T12:14:11;102111.31;;;8.79;100.00
5883;BME280;2967;51.488;6.618;2023-03-04T12:19:28;102111.41;;;8.78;100.00
5883;BME280;2967;51.488;6.618;2023-03-04T12:24:44;102085.28;;;8.46;100.00
5883;BME280;2967;51.488;6.618;2023-03-04T12:29:55;102026.19;;;8.28;100.00
5883;BME280;2967;51.488;6.618;2023-03-04T12:35:13;102097.56;;;8.71;100.00
5883;BME280;2967;51.488;6.618;2023-03-04T12:40:31;102058.44;;;8.35;100.00
5883;BME280;2967;51.488;6.618;2023-03-04T12:45:44;102044.16;;;8.16;100.00
5883;BME280;2967;51.488;6.618;2023-03-04T12:50:53;102089.88;;;8.41;100.00
5883;BME280;2967;51.488;6.618;2023-03-04T12:56:02;102045.50;;;8.29;100.00
5883;BME280;2967;51.488;6.618;2023-03-04T13:01:15;102047.72;;;8.64;100.00
5883;BME280;2967;51.488;6.618;2023-03-04T13:06:30;102065.38;;;8.85;100.00
5883;BME280;2967;51.488;6.618;2023-03-04T13:12:01;102066.00;;;8.91;100.00
5883;BME280;2967;51.488;6.618;2023-03-04T13:17:37;102068.38;;;8.99;100.00
5883;BME280;2967;51.488;6.618;2023-03-04T13:22:50;101982.28;;;8.50;100.00
5883;BME280;2967;51.488;6.618;2023-03-04T13:28:15;102049.00;;;8.77;100.00
5883;BME280;2967;51.488;6.618;2023-03-04T13:33:46;102050.03;;;8.73;100.00
5883;BME280;2967;51.488;6.618;2023-03-04T13:38:57;101970.78;;;8.30;100.00
5883;BME280;2967;51.488;6.618;2023-03-04T13:44:01;102009.75;;;8.45;100.00
5883;BME280;2967;51.488;6.618;2023-03-04T13:49:18;102042.59;;;8.59;100.00
5883;BME280;2967;51.488;6.618;2023-03-04T13:54:24;101968.59;;;8.16;100.00
5883;BME280;2967;51.488;6.618;2023-03-04T13:59:31;101930.03;;;7.91;100.00
5883;BME280;2967;51.488;6.618;2023-03-04T14:04:40;102030.75;;;8.48;100.00
5883;BME280;2967;51.488;6.618;2023-03-04T14:09:58;101984.44;;;8.41;100.00
5883;BME280;2967;51.488;6.618;2023-03-04T14:15:04;101972.28;;;8.37;100.00
5883;BME280;2967;51.488;6.618;2023-03-04T14:20:23;102001.16;;;8.63;100.00
5883;BME280;2967;51.488;6.618;2023-03-04T14:25:30;101995.72;;;8.67;100.00
5883;BME280;2967;51.488;6.618;2023-03-04T14:30:38;101995.53;;;8.72;100.00
5883;BME280;2967;51.488;6.618;2023-03-04T14:35:48;101939.72;;;8.38;100.00
5883;BME280;2967;51.488;6.618;2023-03-04T14:40:53;101987.59;;;8.73;100.00
5883;BME280;2967;51.488;6.618;2023-03-04T14:46:06;101805.97;;;7.74;100.00
5883;BME280;2967;51.488;6.618;2023-03-04T14:51:29;101959.25;;;8.55;100.00
5883;BME280;2967;51.488;6.618;2023-03-04T14:56:34;101902.59;;;8.21;100.00
5883;BME280;2967;51.488;6.618;2023-03-04T15:01:37;101919.31;;;8.20;100.00
5883;BME280;2967;51.488;6.618;2023-03-04T15:06:48;101979.09;;;8.42;100.00
5883;BME280;2967;51.488;6.618;2023-03-04T15:12:00;101984.88;;;8.52;100.00
5883;BME280;2967;51.488;6.618;2023-03-04T15:17:22;101929.28;;;8.10;100.00
5883;BME280;2967;51.488;6.618;2023-03-04T15:22:28;101952.50;;;8.25;100.00
5883;BME280;2967;51.488;6.618;2023-03-04T15:27:31;101966.19;;;8.35;100.00
5883;BME280;2967;51.488;6.618;2023-03-04T15:32:34;101965.94;;;8.42;100.00
5883;BME280;2967;51.488;6.618;2023-03-04T15:37:42;101979.16;;;8.41;100.00
5883;BME280;2967;51.488;6.618;2023-03-04T15:42:45;101975.88;;;8.34;100.00
5883;BME280;2967;51.488;6.618;2023-03-04T15:47:48;101857.81;;;7.73;100.00
5883;BME280;2967;51.488;6.618;2023-03-04T15:52:57;101936.84;;;8.21;100.00
5883;BME280;2967;51.488;6.618;2023-03-04T15:58:02;101961.75;;;8.37;100.00
5883;BME280;2967;51.488;6.618;2023-03-04T16:03:12;101964.25;;;8.40;100.00
5883;BME280;2967;51.488;6.618;2023-03-04T16:08:22;101875.00;;;8.06;100.00
5883;BME280;2967;51.488;6.618;2023-03-04T16:13:30;101912.38;;;8.16;100.00
5883;BME280;2967;51.488;6.618;2023-03-04T16:18:33;101921.72;;;8.26;100.00
5883;BME280;2967;51.488;6.618;2023-03-04T16:23:40;101927.06;;;8.24;100.00
5883;BME280;2967;51.488;6.618;2023-03-04T16:28:43;101958.06;;;8.41;100.00
5883;BME280;2967;51.488;6.618;2023-03-04T16:33:46;101956.50;;;8.35;100.00
5883;BME280;2967;51.488;6.618;2023-03-04T16:38:50;101904.09;;;8.03;100.00
5883;BME280;2967;51.488;6.618;2023-03-04T16:43:57;101893.72;;;7.99;100.00
5883;BME280;2967;51.488;6.618;2023-03-04T16:49:00;101957.31;;;8.37;100.00
5883;BME280;2967;51.488;6.618;2023-03-04T16:54:06;101934.00;;;8.27;100.00
5883;BME280;2967;51.488;6.618;2023-03-04T16:59:14;101967.56;;;8.45;100.00
5883;BME280;2967;51.488;6.618;2023-03-04T17:04:19;101938.22;;;8.31;100.00
5883;BME280;2967;51.488;6.618;2023-03-04T17:09:23;101839.28;;;7.75;100.00
5883;BME280;2967;51.488;6.618;2023-03-04T17:14:26;101970.44;;;8.39;100.00
5883;BME280;2967;51.488;6.618;2023-03-04T17:19:30;101882.88;;;7.83;100.00
5883;BME280;2967;51.488;6.618;2023-03-04T17:24:35;101961.31;;;8.24;100.00
5883;BME280;2967;51.488;6.618;2023-03-04T17:29:40;101771.91;;;7.22;100.00
5883;BME280;2967;51.488;6.618;2023-03-04T17:34:43;101937.16;;;8.12;100.00
5883;BME280;2967;51.488;6.618;2023-03-04T17:39:48;101926.09;;;8.02;100.00
5883;BME280;2967;51.488;6.618;2023-03-04T17:44:50;101900.56;;;7.80;100.00
5883;BME280;2967;51.488;6.618;2023-03-04T17:49:53;101959.84;;;8.16;100.00
5883;BME280;2967;51.488;6.618;2023-03-04T17:55:00;101978.09;;;8.22;100.00
5883;BME280;2967;51.488;6.618;2023-03-04T18:00:05;101982.81;;;8.12;100.00
5883;BME280;2967;51.488;6.618;2023-03-04T18:05:08;101978.72;;;8.04;100.00
5883;BME280;2967;51.488;6.618;2023-03-04T18:10:13;101978.69;;;8.05;100.00
5883;BME280;2967;51.488;6.618;2023-03-04T18:15:20;101908.03;;;7.68;100.00
5883;BME280;2967;51.488;6.618;2023-03-04T18:20:24;101844.53;;;7.28;100.00
5883;BME280;2967;51.488;6.618;2023-03-04T18:25:29;101896.06;;;7.59;100.00
5883;BME280;2967;51.488;6.618;2023-03-04T18:30:33;101959.97;;;7.88;100.00
5883;BME280;2967;51.488;6.618;2023-03-04T18:35:39;101916.97;;;7.64;100.00
5883;BME280;2967;51.488;6.618;2023-03-04T18:40:45;101877.25;;;7.45;100.00
5883;BME280;2967;51.488;6.618;2023-03-04T18:45:48;101971.97;;;7.97;100.00
5883;BME280;2967;51.488;6.618;2023-03-04T18:51:00;101970.28;;;7.94;100.00
5883;BME280;2967;51.488;6.618;2023-03-04T18:56:08;101905.88;;;7.54;100.00
5883;BME280;2967;51.488;6.618;2023-03-04T19:01:14;101944.75;;;7.72;100.00
5883;BME280;2967;51.488;6.618;2023-03-04T19:06:24;101956.16;;;7.72;100.00
5883;BME280;2967;51.488;6.618;2023-03-04T19:11:30;101797.06;;;6.80;100.00
5883;BME280;2967;51.488;6.618;2023-03-04T19:16:34;101606.63;;;5.60;100.00
5883;BME280;2967;51.488;6.618;2023-03-04T19:21:42;101766.38;;;6.55;100.00
5883;BME280;2967;51.488;6.618;2023-03-04T19:26:48;101674.75;;;5.92;100.00
5883;BME280;2967;51.488;6.618;2023-03-04T19:31:52;101727.34;;;5.89;100.00
5883;BME280;2967;51.488;6.618;2023-03-04T19:37:17;101503.88;;;4.92;100.00
5883;BME280;2967;51.488;6.618;2023-03-04T19:42:43;101981.47;;;7.76;100.00
5883;BME280;2967;51.488;6.618;2023-03-04T19:47:59;101897.28;;;7.25;100.00
5883;BME280;2967;51.488;6.618;2023-03-04T19:53:24;101858.25;;;6.85;100.00
5883;BME280;2967;51.488;6.618;2023-03-04T19:58:38;101954.50;;;7.44;100.00
5883;BME280;2967;51.488;6.618;2023-03-04T20:03:41;101955.22;;;7.49;100.00
5883;BME280;2967;51.488;6.618;2023-03-04T20:08:44;101892.34;;;7.14;100.00
5883;BME280;2967;51.488;6.618;2023-03-04T20:13:48;101991.69;;;7.60;100.00
5883;BME280;2967;51.488;6.618;2023-03-04T20:18:51;101983.13;;;7.55;100.00
5883;BME280;2967;51.488;6.618;2023-03-04T20:23:57;101933.59;;;7.14;100.00
5883;BME280;2967;51.488;6.618;2023-03-04T20:29:03;101981.22;;;7.32;100.00
5883;BME280;2967;51.488;6.618;2023-03-04T20:34:07;101962.03;;;7.29;100.00
5883;BME280;2967;51.488;6.618;2023-03-04T20:39:13;101981.03;;;7.38;100.00
5883;BME280;2967;51.488;6.618;2023-03-04T20:44:30;101721.03;;;5.66;100.00
5883;BME280;2967;51.488;6.618;2023-03-04T20:49:33;101711.44;;;5.66;100.00
5883;BME280;2967;51.488;6.618;2023-03-04T20:54:38;101995.41;;;7.28;100.00
5883;BME280;2967;51.488;6.618;2023-03-04T20:59:44;101948.66;;;7.09;100.00
5883;BME280;2967;51.488;6.618;2023-03-04T21:04:47;101986.00;;;7.20;100.00
5883;BME280;2967;51.488;6.618;2023-03-04T21:09:52;101959.63;;;6.95;100.00
5883;BME280;2967;51.488;6.618;2023-03-04T21:14:59;101903.22;;;6.50;100.00
5883;BME280;2967;51.488;6.618;2023-03-04T21:20:02;101995.34;;;7.02;100.00
5883;BME280;2967;51.488;6.618;2023-03-04T21:25:06;101986.38;;;6.82;100.00
5883;BME280;2967;51.488;6.618;2023-03-04T21:30:12;101821.28;;;6.09;100.00
5883;BME280;2967;51.488;6.618;2023-03-04T21:35:21;101891.94;;;6.47;100.00
5883;BME280;2967;51.488;6.618;2023-03-04T21:40:26;101972.69;;;6.98;100.00
5883;BME280;2967;51.488;6.618;2023-03-04T21:45:31;101927.22;;;6.67;100.00
5883;BME280;2967;51.488;6.618;2023-03-04T21:50:36;101979.22;;;6.85;100.00
5883;BME280;2967;51.488;6.618;2023-03-04T21:55:40;101835.28;;;6.09;100.00
5883;BME280;2967;51.488;6.618;2023-03-04T22:00:48;101752.03;;;5.53;100.00
5883;BME280;2967;51.488;6.618;2023-03-04T22:05:52;101678.66;;;5.21;100.00
5883;BME280;2967;51.488;6.618;2023-03-04T22:10:55;101957.34;;;6.85;100.00
5883;BME280;2967;51.488;6.618;2023-03-04T22:16:00;101957.50;;;6.79;100.00
5883;BME280;2967;51.488;6.618;2023-03-04T22:21:06;101632.22;;;4.95;100.00
5883;BME280;2967;51.488;6.618;2023-03-04T22:26:12;101955.13;;;6.71;100.00
5883;BME280;2967;51.488;6.618;2023-03-04T22:31:20;101855.13;;;6.19;100.00
5883;BME280;2967;51.488;6.618;2023-03-04T22:36:33;101911.22;;;6.46;100.00
5883;BME280;2967;51.488;6.618;2023-03-04T22:41:36;101888.28;;;6.51;100.00
5883;BME280;2967;51.488;6.618;2023-03-04T22:46:41;101937.09;;;6.87;100.00
5883;BME280;2967;51.488;6.618;2023-03-04T22:51:44;101927.34;;;6.90;100.00
5883;BME280;2967;51.488;6.618;2023-03-04T22:56:57;101376.34;;;3.78;100.00
5883;BME280;2967;51.488;6.618;2023-03-04T23:02:06;101791.16;;;6.20;100.00
5883;BME280;2967;51.488;6.618;2023-03-04T23:07:09;101887.97;;;6.61;100.00
5883;BME280;2967;51.488;6.618;2023-03-04T23:12:12;101893.88;;;6.68;100.00
5883;BME280;2967;51.488;6.618;2023-03-04T23:17:17;101548.44;;;4.63;100.00
5883;BME280;2967;51.488;6.618;2023-03-04T23:22:20;101923.84;;;6.90;100.00
5883;BME280;2967;51.488;6.618;2023-03-04T23:27:29;101917.16;;;6.80;100.00
5883;BME280;2967;51.488;6.618;2023-03-04T23:32:34;101665.56;;;5.20;100.00
5883;BME280;2967;51.488;6.618;2023-03-04T23:37:39;101755.38;;;5.89;100.00
5883;BME280;2967;51.488;6.618;2023-03-04T23:42:41;101732.13;;;5.75;100.00
5883;BME280;2967;51.488;6.618;2023-03-04T23:47:57;101777.16;;;5.92;100.00
5883;BME280;2967;51.488;6.618;2023-03-04T23:53:01;101628.00;;;5.19;100.00
5883;BME280;2967;51.488;6.618;2023-03-04T23:58:11;101449.97;;;4.27;100.00
